Time,TemperatureF,DewpointF,PressureIn,WindDirection,WindDirectionDegrees,WindSpeedMPH,WindSpeedGustMPH,Humidity,HourlyPrecipIn,Conditions,Clouds,dailyrainin,SoftwareType,DateUTC
2013-01-17 00:00:00,31.6,30.0,30.15,WSW,258,0.0,0.0,95,0.00,,,0.00,weatherlink.com 1.10,2013-01-17 06:00:00,
2013-01-17 00:15:00,31.5,31.0,30.15,WNW,283,0.0,0.0,96,0.00,,,0.00,weatherlink.com 1.10,2013-01-17 06:15:00,
2013-01-17 00:30:00,31.5,31.0,30.16,WNW,283,0.0,0.0,96,0.00,,,0.00,weatherlink.com 1.10,2013-01-17 06:30:00,
2013-01-17 00:45:00,31.5,31.0,30.16,WNW,283,0.0,0.0,96,0.00,,,0.00,weatherlink.com 1.10,2013-01-17 06:45:00,
2013-01-17 01:00:00,31.6,31.0,30.16,SW,236,0.0,1.0,96,0.00,,,0.00,weatherlink.com 1.10,2013-01-17 07:00:00,
2013-01-17 01:15:00,31.7,31.0,30.16,SW,236,0.0,0.0,96,0.00,,,0.00,weatherlink.com 1.10,2013-01-17 07:15:00,
2013-01-17 01:30:00,31.7,31.0,30.15,NE,53,0.0,2.0,96,0.00,,,0.00,weatherlink.com 1.10,2013-01-17 07:30:00,
2013-01-17 01:45:00,31.8,31.0,30.13,NE,38,1.0,2.0,96,0.00,,,0.00,weatherlink.com 1.10,2013-01-17 07:45:00,
2013-01-17 02:00:00,31.8,31.0,30.14,NW,304,0.0,1.0,95,0.00,,,0.00,weatherlink.com 1.10,2013-01-17 08:00:00,
2013-01-17 02:15:00,31.9,31.0,30.15,WNW,293,0.0,0.0,95,0.00,,,0.00,weatherlink.com 1.10,2013-01-17 08:15:00,
2013-01-17 02:30:00,31.8,31.0,30.14,NNW,342,0.0,1.0,95,0.00,,,0.00,weatherlink.com 1.10,2013-01-17 08:30:00,
2013-01-17 02:45:00,31.8,31.0,30.14,West,278,0.0,1.0,95,0.00,,,0.00,weatherlink.com 1.10,2013-01-17 08:45:00,
2013-01-17 03:00:00,31.8,31.0,30.14,East,87,0.0,0.0,95,0.00,,,0.00,weatherlink.com 1.10,2013-01-17 09:00:00,
2013-01-17 03:15:00,32.0,31.0,30.13,WNW,285,0.0,1.0,94,0.00,,,0.00,weatherlink.com 1.10,2013-01-17 09:15:00,
2013-01-17 03:30:00,32.0,31.0,30.14,NW,304,0.0,0.0,94,0.00,,,0.00,weatherlink.com 1.10,2013-01-17 09:30:00,
2013-01-17 03:45:00,32.0,31.0,30.14,NNW,333,0.0,0.0,94,0.00,,,0.00,weatherlink.com 1.10,2013-01-17 09:45:00,
2013-01-17 04:00:00,32.0,31.0,30.14,NE,43,0.0,1.0,94,0.00,,,0.00,weatherlink.com 1.10,2013-01-17 10:00:00,
2013-01-17 04:15:00,31.9,30.0,30.15,SSW,212,0.0,0.0,93,0.00,,,0.00,weatherlink.com 1.10,2013-01-17 10:15:00,
2013-01-17 04:30:00,31.9,30.0,30.16,West,269,0.0,1.0,93,0.00,,,0.00,weatherlink.com 1.10,2013-01-17 10:30:00,
2013-01-17 04:45:00,31.8,30.0,30.15,NNW,332,0.0,1.0,92,0.00,,,0.00,weatherlink.com 1.10,2013-01-17 10:45:00,
2013-01-17 05:00:00,31.8,30.0,30.16,NE,43,0.0,1.0,91,0.00,,,0.00,weatherlink.com 1.10,2013-01-17 11:00:00,
2013-01-17 05:15:00,31.8,30.0,30.17,NE,41,0.0,0.0,91,0.00,,,0.00,weatherlink.com 1.10,2013-01-17 11:15:00,
2013-01-17 05:30:00,31.6,29.0,30.16,NNW,335,0.0,0.0,91,0.00,,,0.00,weatherlink.com 1.10,2013-01-17 11:30:00,
2013-01-17 05:45:00,31.4,29.0,30.16,WNW,285,0.0,0.0,90,0.00,,,0.00,weatherlink.com 1.10,2013-01-17 11:45:00,
2013-01-17 06:00:00,31.4,29.0,30.16,NE,47,0.0,1.0,90,0.00,,,0.00,weatherlink.com 1.10,2013-01-17 12:00:00,
2013-01-17 06:15:00,31.3,29.0,30.17,NW,316,0.0,1.0,90,0.00,,,0.00,weatherlink.com 1.10,2013-01-17 12:15:00,
2013-01-17 06:30:00,31.1,29.0,30.18,WSW,248,0.0,1.0,90,0.00,,,0.00,weatherlink.com 1.10,2013-01-17 12:30:00,
2013-01-17 07:01:00,31.4,29.0,30.19,NNE,13,0.0,2.0,89,0.00,,,0.00,weatherlink.com 1.10,2013-01-17 13:01:00,
2013-01-17 07:16:00,31.4,29.0,30.19,NNE,13,0.0,0.0,89,0.00,,,0.00,weatherlink.com 1.10,2013-01-17 13:16:00,
2013-01-17 07:31:00,31.7,29.0,30.20,North,11,0.0,1.0,90,0.00,,,0.00,weatherlink.com 1.10,2013-01-17 13:31:00,
2013-01-17 07:46:00,32.0,29.0,30.21,West,262,0.0,3.0,89,0.00,,,0.00,weatherlink.com 1.10,2013-01-17 13:46:00,
2013-01-17 08:01:00,32.2,29.0,30.21,North,351,0.0,2.0,89,0.00,,,0.00,weatherlink.com 1.10,2013-01-17 14:01:00,
2013-01-17 08:16:00,32.5,30.0,30.22,West,270,0.0,3.0,89,0.00,,,0.00,weatherlink.com 1.10,2013-01-17 14:16:00,
2013-01-17 08:31:00,32.5,29.0,30.22,NNE,23,0.0,2.0,88,0.00,,,0.00,weatherlink.com 1.10,2013-01-17 14:31:00,
2013-01-17 08:46:00,33.1,30.0,30.24,NNE,26,0.0,3.0,87,0.00,,,0.00,weatherlink.com 1.10,2013-01-17 14:46:00,
2013-01-17 09:01:00,33.7,30.0,30.24,West,280,5.0,6.0,85,0.00,,,0.00,weatherlink.com 1.10,2013-01-17 15:01:00,
2013-01-17 09:16:00,34.4,29.0,30.25,NW,326,2.0,7.0,82,0.00,,,0.00,weatherlink.com 1.10,2013-01-17 15:16:00,
2013-01-17 09:31:00,34.8,30.0,30.25,NNW,327,2.0,7.0,82,0.00,,,0.00,weatherlink.com 1.10,2013-01-17 15:31:00,
2013-01-17 09:46:00,35.3,31.0,30.26,North,6,1.0,5.0,83,0.00,,,0.00,weatherlink.com 1.10,2013-01-17 15:46:00,
2013-01-17 10:01:00,35.7,31.0,30.26,NE,46,3.0,6.0,82,0.00,,,0.00,weatherlink.com 1.10,2013-01-17 16:01:00,
2013-01-17 10:16:00,36.0,32.0,30.26,West,280,1.0,4.0,84,0.00,,,0.00,weatherlink.com 1.10,2013-01-17 16:16:00,
2013-01-17 10:31:00,36.3,32.0,30.25,North,11,1.0,5.0,83,0.00,,,0.00,weatherlink.com 1.10,2013-01-17 16:31:00,
2013-01-17 10:46:00,36.8,32.0,30.25,NE,39,1.0,5.0,83,0.00,,,0.00,weatherlink.com 1.10,2013-01-17 16:46:00,
2013-01-17 11:01:00,37.7,33.0,30.25,WSW,242,3.0,7.0,83,0.00,,,0.00,weatherlink.com 1.10,2013-01-17 17:01:00,
2013-01-17 11:16:00,38.7,34.0,30.24,ESE,110,1.0,6.0,83,0.00,,,0.00,weatherlink.com 1.10,2013-01-17 17:16:00,
2013-01-17 11:31:00,40.2,34.0,30.24,WNW,297,5.0,7.0,78,0.00,,,0.00,weatherlink.com 1.10,2013-01-17 17:31:00,
2013-01-17 11:46:00,41.7,34.0,30.23,NNE,29,4.0,6.0,75,0.00,,,0.00,weatherlink.com 1.10,2013-01-17 17:46:00,
2013-01-17 12:01:00,42.7,35.0,30.23,West,280,2.0,8.0,75,0.00,,,0.00,weatherlink.com 1.10,2013-01-17 18:01:00,
2013-01-17 12:17:00,44.1,36.0,30.22,NNW,342,3.0,6.0,73,0.00,,,0.00,weatherlink.com 1.10,2013-01-17 18:17:00,
2013-01-17 12:32:00,44.8,36.0,30.23,NE,41,4.0,9.0,70,0.00,,,0.00,weatherlink.com 1.10,2013-01-17 18:32:00,
2013-01-17 12:47:00,45.6,35.0,30.23,WSW,248,5.0,10.0,67,0.00,,,0.00,weatherlink.com 1.10,2013-01-17 18:47:00,
2013-01-17 13:02:00,46.2,36.0,30.22,North,354,6.0,8.0,67,0.01,,,0.01,weatherlink.com 1.10,2013-01-17 19:02:00,
2013-01-17 13:17:00,46.6,36.0,30.23,NW,318,3.0,7.0,67,0.02,,,0.02,weatherlink.com 1.10,2013-01-17 19:17:00,
2013-01-17 13:32:00,46.9,36.0,30.24,NW,308,3.0,10.0,67,0.03,,,0.03,weatherlink.com 1.10,2013-01-17 19:32:00,
2013-01-17 13:47:00,45.3,35.0,30.25,WNW,295,5.0,10.0,67,0.03,,,0.03,weatherlink.com 1.10,2013-01-17 19:47:00,
2013-01-17 14:02:00,46.0,36.0,30.25,NNE,29,3.0,10.0,67,0.03,,,0.04,weatherlink.com 1.10,2013-01-17 20:02:00,
2013-01-17 14:17:00,45.6,36.0,30.26,South,183,6.0,13.0,68,0.03,,,0.05,weatherlink.com 1.10,2013-01-17 20:17:00,
2013-01-17 14:32:00,45.8,36.0,30.27,NW,322,5.0,9.0,68,0.02,,,0.05,weatherlink.com 1.10,2013-01-17 20:32:00,
2013-01-17 14:47:00,45.7,36.0,30.27,WNW,297,8.0,13.0,69,0.03,,,0.06,weatherlink.com 1.10,2013-01-17 20:47:00,
2013-01-17 15:02:00,45.5,36.0,30.29,West,274,6.0,12.0,70,0.03,,,0.07,weatherlink.com 1.10,2013-01-17 21:02:00,
2013-01-17 15:17:00,46.0,37.0,30.30,North,353,7.0,8.0,70,0.02,,,0.07,weatherlink.com 1.10,2013-01-17 21:17:00,
2013-01-17 15:32:00,46.0,37.0,30.30,South,169,1.0,13.0,71,0.01,,,0.07,weatherlink.com 1.10,2013-01-17 21:32:00,
2013-01-17 15:47:00,46.1,38.0,30.31,East,100,3.0,11.0,72,0.02,,,0.08,weatherlink.com 1.10,2013-01-17 21:47:00,
2013-01-17 16:02:00,46.0,37.0,30.32,North,352,5.0,10.0,72,0.01,,,0.08,weatherlink.com 1.10,2013-01-17 22:02:00,
2013-01-17 16:17:00,45.2,37.0,30.33,NW,321,6.0,11.0,74,0.01,,,0.08,weatherlink.com 1.10,2013-01-17 22:17:00,
2013-01-17 16:32:00,44.7,37.0,30.34,WNW,285,4.0,14.0,75,0.01,,,0.08,weatherlink.com 1.10,2013-01-17 22:32:00,
2013-01-17 16:47:00,44.1,37.0,30.34,NNW,328,3.0,8.0,75,0.00,,,0.08,weatherlink.com 1.10,2013-01-17 22:47:00,
2013-01-17 17:02:00,43.4,37.0,30.36,NNW,328,2.0,8.0,77,0.00,,,0.08,weatherlink.com 1.10,2013-01-17 23:02:00,
2013-01-17 17:17:00,42.7,37.0,30.36,NNE,31,2.0,7.0,79,0.00,,,0.08,weatherlink.com 1.10,2013-01-17 23:17:00,
2013-01-17 17:32:00,42.2,36.0,30.37,NW,308,3.0,7.0,80,0.00,,,0.08,weatherlink.com 1.10,2013-01-17 23:32:00,
2013-01-17 17:47:00,41.6,36.0,30.38,NNE,26,2.0,6.0,81,0.00,,,0.08,weatherlink.com 1.10,2013-01-17 23:47:00,
2013-01-17 18:02:00,41.0,36.0,30.39,NE,39,1.0,4.0,82,0.00,,,0.08,weatherlink.com 1.10,2013-01-18 00:02:00,
2013-01-17 18:17:00,40.4,36.0,30.40,NW,309,1.0,5.0,83,0.00,,,0.08,weatherlink.com 1.10,2013-01-18 00:17:00,
2013-01-17 18:32:00,40.0,35.0,30.41,ENE,66,3.0,4.0,83,0.00,,,0.08,weatherlink.com 1.10,2013-01-18 00:32:00,
2013-01-17 18:47:00,39.8,35.0,30.41,North,9,0.0,6.0,82,0.00,,,0.08,weatherlink.com 1.10,2013-01-18 00:47:00,
2013-01-17 19:02:00,39.3,34.0,30.42,West,264,1.0,5.0,82,0.00,,,0.08,weatherlink.com 1.10,2013-01-18 01:02:00,
2013-01-17 19:18:00,39.1,34.0,30.43,NNE,29,3.0,7.0,82,0.00,,,0.08,weatherlink.com 1.10,2013-01-18 01:18:00,
2013-01-17 19:32:00,38.7,34.0,30.43,NE,48,2.0,4.0,82,0.00,,,0.08,weatherlink.com 1.10,2013-01-18 01:32:00,
2013-01-17 19:47:00,38.4,33.0,30.44,NW,306,4.0,4.0,81,0.00,,,0.08,weatherlink.com 1.10,2013-01-18 01:47:00,
2013-01-17 20:02:00,37.8,33.0,30.44,NW,304,2.0,6.0,82,0.00,,,0.08,weatherlink.com 1.10,2013-01-18 02:02:00,
2013-01-17 20:18:00,37.5,33.0,30.45,ESE,103,1.0,3.0,82,0.00,,,0.08,weatherlink.com 1.10,2013-01-18 02:18:00,
2013-01-17 20:33:00,37.1,32.0,30.45,NNE,27,1.0,3.0,81,0.00,,,0.08,weatherlink.com 1.10,2013-01-18 02:33:00,
2013-01-17 20:48:00,36.7,32.0,30.46,NW,316,1.0,4.0,82,0.00,,,0.08,weatherlink.com 1.10,2013-01-18 02:48:00,
2013-01-17 21:03:00,36.6,31.0,30.47,WNW,302,1.0,3.0,80,0.00,,,0.08,weatherlink.com 1.10,2013-01-18 03:03:00,
2013-01-17 21:18:00,36.4,30.0,30.47,East,86,1.0,4.0,78,0.00,,,0.08,weatherlink.com 1.10,2013-01-18 03:18:00,
2013-01-17 21:33:00,36.4,30.0,30.47,NNW,328,2.0,4.0,76,0.00,,,0.08,weatherlink.com 1.10,2013-01-18 03:33:00,
2013-01-17 21:48:00,36.1,29.0,30.48,NNE,20,0.0,3.0,75,0.00,,,0.08,weatherlink.com 1.10,2013-01-18 03:48:00,
2013-01-17 22:03:00,35.7,29.0,30.48,NNE,22,0.0,3.0,76,0.00,,,0.08,weatherlink.com 1.10,2013-01-18 04:03:00,
2013-01-17 22:18:00,35.4,29.0,30.48,NNE,25,0.0,3.0,76,0.00,,,0.08,weatherlink.com 1.10,2013-01-18 04:18:00,
2013-01-17 22:33:00,34.8,28.0,30.48,NE,42,0.0,2.0,77,0.00,,,0.08,weatherlink.com 1.10,2013-01-18 04:33:00,
2013-01-17 22:48:00,34.2,28.0,30.48,NNE,24,0.0,2.0,78,0.00,,,0.08,weatherlink.com 1.10,2013-01-18 04:48:00,
2013-01-17 23:03:00,33.2,28.0,30.48,NNE,22,0.0,1.0,81,0.00,,,0.08,weatherlink.com 1.10,2013-01-18 05:03:00,
2013-01-17 23:18:00,32.1,27.0,30.47,NNE,22,0.0,0.0,82,0.00,,,0.08,weatherlink.com 1.10,2013-01-18 05:18:00,
2013-01-17 23:33:00,30.5,27.0,30.48,NNE,22,0.0,0.0,85,0.00,,,0.08,weatherlink.com 1.10,2013-01-18 05:33:00,
2013-01-17 23:48:00,29.4,26.0,30.48,NNE,22,0.0,0.0,88,0.00,,,0.08,weatherlink.com 1.10,2013-01-18 05:48:00,